Temp: 17.3°C   Baro: 1015.2mb
  Wind: 8.1mph   Dir: NW (312°)
  Rain: 9.6mm (0.0mm/hr)
  Solar: 773W/m2  Hum: 69%
 
Bath Spa Weather Historical Data
Daily Summary for June 13, 2019 Units:  Both    English   Metric
Next Day »
Daily Weekly Monthly Yearly Custom
  High: Low: Average:
Temperature: 56.8 °F /  13.8 °C 50 °F /  10.0 °C 52.9 °F /  11.6 °C
Dew Point: 54 °F /  12.2 °C 48 °F /  8.9 °C 50.2 °F /  10.1 °C
Humidity: 94% 86% 91%
Wind Speed: 15mph /  24.1km/h - 4mph /  6.5km/h
Wind Gust: 21mph /  33.8km/h - -
Wind direction- - WSW
Pressure: 29.7 in /  1007.0 hPa 29.6 in /  1002.9 hPa -
Precipitation: 0.32 in /  8.1 mm    
Historical Graphs
 
 
Tabular Data for June 13, 2019
Time Temperature Dew Point Pressure Wind direction Wind Speed Wind Gust Humidity Rainfall Rate (Hourly) solar
00:04 51.3 °F /  10.7 °C 49.3 °F /  9.6 °C 29.7in /  1006.7hPa Calm   2mph /  3.2km/h 93% 0.04in /  1.0mm 0.00 W/m2
00:09 51.3 °F /  10.7 °C 49.3 °F /  9.6 °C 29.7in /  1006.7hPa Calm   5mph /  8.0km/h 93% 0.04in /  1.0mm 0.00 W/m2
00:14 51.3 °F /  10.7 °C 49.3 °F /  9.6 °C 29.7in /  1006.7hPa WNW 0.9mph /  1.4km/h 1mph /  1.6km/h 93% 0.04in /  1.0mm 0.00 W/m2
00:19 51.3 °F /  10.7 °C 49.3 °F /  9.6 °C 29.7in /  1006.7hPa WNW 0.9mph /  1.4km/h 4mph /  6.4km/h 93% 0.04in /  1.0mm 0.00 W/m2
00:24 51.3 °F /  10.7 °C 49.3 °F /  9.6 °C 29.7in /  1006.7hPa Calm   3mph /  4.8km/h 93% 0.04in /  1.0mm 0.00 W/m2
00:29 51.1 °F /  10.6 °C 49.1 °F /  9.5 °C 29.7in /  1006.3hPa WNW 4mph /  6.4km/h 5mph /  8.0km/h 93% 0.04in /  1.0mm 0.00 W/m2
00:34 51.1 °F /  10.6 °C 49.1 °F /  9.5 °C 29.7in /  1006.3hPa WNW 2mph /  3.2km/h 5mph /  8.0km/h 93% 0.04in /  1.0mm 0.00 W/m2
00:39 50.9 °F /  10.5 °C 48.9 °F /  9.4 °C 29.7in /  1006.3hPa Calm   3mph /  4.8km/h 93% 0.04in /  1.0mm 0.00 W/m2
00:44 50.9 °F /  10.5 °C 48.9 °F /  9.4 °C 29.7in /  1006.3hPa West 2.9mph /  4.7km/h 7mph /  11.3km/h 93% 0.04in /  1.0mm 0.00 W/m2
00:49 50.9 °F /  10.5 °C 48.9 °F /  9.4 °C 29.7in /  1006.3hPa West 0.9mph /  1.4km/h 7mph /  11.3km/h 93% 0.04in /  1.0mm 0.00 W/m2
00:54 50.9 °F /  10.5 °C 48.9 °F /  9.4 °C 29.7in /  1006.3hPa Calm   8mph /  12.9km/h 93% 0.03in /  0.8mm 0.00 W/m2
00:59 50.9 °F /  10.5 °C 48.9 °F /  9.4 °C 29.7in /  1006.3hPa WSW 2mph /  3.2km/h 6mph /  9.7km/h 93% 0.03in /  0.8mm 0.00 W/m2
01:04 50.7 °F /  10.4 °C 48.7 °F /  9.3 °C 29.7in /  1006.0hPa WSW 4mph /  6.4km/h 5mph /  8.0km/h 93% 0.03in /  0.8mm 0.00 W/m2
01:09 50.7 °F /  10.4 °C 48.7 °F /  9.3 °C 29.7in /  1006.0hPa WSW 2mph /  3.2km/h 4mph /  6.4km/h 93% 0.02in /  0.5mm 0.00 W/m2
01:14 50.7 °F /  10.4 °C 48.7 °F /  9.3 °C 29.7in /  1006.0hPa WSW 0.9mph /  1.4km/h 3mph /  4.8km/h 93% 0.02in /  0.5mm 0.00 W/m2
01:19 50.5 °F /  10.3 °C 48.6 °F /  9.2 °C 29.7in /  1006.0hPa WSW 4.9mph /  7.9km/h 5mph /  8.0km/h 93% 0.03in /  0.8mm 0.00 W/m2
01:24 50.7 °F /  10.4 °C 48.7 °F /  9.3 °C 29.7in /  1006.0hPa Calm     93% 0.03in /  0.8mm 0.00 W/m2
01:29 50.5 °F /  10.3 °C 48.6 °F /  9.2 °C 29.7in /  1005.6hPa WSW 4mph /  6.4km/h 5mph /  8.0km/h 93% 0.03in /  0.8mm 0.00 W/m2
01:34 50.5 °F /  10.3 °C 48.6 °F /  9.2 °C 29.7in /  1005.6hPa Calm   5mph /  8.0km/h 93% 0.04in /  1.0mm 0.00 W/m2
01:39 50.5 °F /  10.3 °C 48.6 °F /  9.2 °C 29.7in /  1005.6hPa WSW 0.9mph /  1.4km/h 5mph /  8.0km/h 93% 0.03in /  0.8mm 0.00 W/m2
01:44 50.5 °F /  10.3 °C 48.6 °F /  9.2 °C 29.7in /  1005.6hPa WSW 2mph /  3.2km/h 3mph /  4.8km/h 93% 0.03in /  0.8mm 0.00 W/m2
01:49 50.4 °F /  10.2 °C 48.4 °F /  9.1 °C 29.7in /  1005.6hPa WSW 2mph /  3.2km/h 6mph /  9.7km/h 93% 0.04in /  1.0mm 0.00 W/m2
01:54 50.4 °F /  10.2 °C 48.4 °F /  9.1 °C 29.7in /  1005.6hPa WSW 2.9mph /  4.7km/h 6mph /  9.7km/h 93% 0.03in /  0.8mm 0.00 W/m2
01:59 50.4 °F /  10.2 °C 48.4 °F /  9.1 °C 29.7in /  1005.6hPa WSW 2.9mph /  4.7km/h 6mph /  9.7km/h 93% 0.03in /  0.8mm 0.00 W/m2
02:04 50.4 °F /  10.2 °C 48.4 °F /  9.1 °C 29.7in /  1005.3hPa WSW 6mph /  9.7km/h 8mph /  12.9km/h 93% 0.03in /  0.8mm 0.00 W/m2
02:09 50.2 °F /  10.1 °C 48.2 °F /  9.0 °C 29.7in /  1005.3hPa Calm   6mph /  9.7km/h 93% 0.03in /  0.8mm 0.00 W/m2
02:14 50.2 °F /  10.1 °C 48.2 °F /  9.0 °C 29.7in /  1005.3hPa Calm   3mph /  4.8km/h 93% 0.02in /  0.5mm 0.00 W/m2
02:19 50 °F /  10.0 °C 48 °F /  8.9 °C 29.7in /  1005.0hPa WSW 2.9mph /  4.7km/h 6mph /  9.7km/h 93% 0.02in /  0.5mm 0.00 W/m2
02:24 50 °F /  10.0 °C 48 °F /  8.9 °C 29.7in /  1005.0hPa WSW 2mph /  3.2km/h 7mph /  11.3km/h 93% 0.02in /  0.5mm 0.00 W/m2
02:29 50 °F /  10.0 °C 48 °F /  8.9 °C 29.7in /  1005.0hPa WSW 2mph /  3.2km/h 4mph /  6.4km/h 93% 0.02in /  0.5mm 0.00 W/m2
02:34 50 °F /  10.0 °C 48 °F /  8.9 °C 29.7in /  1005.0hPa WSW 4mph /  6.4km/h 7mph /  11.3km/h 93% 0.02in /  0.5mm 0.00 W/m2
02:39 50 °F /  10.0 °C 48 °F /  8.9 °C 29.7in /  1005.0hPa Calm   4mph /  6.4km/h 93% 0.02in /  0.5mm 0.00 W/m2
02:44 50 °F /  10.0 °C 48 °F /  8.9 °C 29.7in /  1004.6hPa WSW 2mph /  3.2km/h 3mph /  4.8km/h 93% 0.04in /  1.0mm 0.00 W/m2
02:49 50 °F /  10.0 °C 48 °F /  8.9 °C 29.7in /  1004.6hPa WSW 4mph /  6.4km/h 6mph /  9.7km/h 93% 0.03in /  0.8mm 0.00 W/m2
02:54 50 °F /  10.0 °C 48 °F /  8.9 °C 29.7in /  1004.6hPa WSW 2mph /  3.2km/h 4mph /  6.4km/h 93% 0.03in /  0.8mm 0.00 W/m2
02:59 50 °F /  10.0 °C 48 °F /  8.9 °C 29.7in /  1004.6hPa Calm   3mph /  4.8km/h 93% 0.03in /  0.8mm 0.00 W/m2
03:04 50 °F /  10.0 °C 48 °F /  8.9 °C 29.7in /  1004.6hPa Calm   3mph /  4.8km/h 93% 0.04in /  1.0mm 0.00 W/m2
03:09 50 °F /  10.0 °C 48 °F /  8.9 °C 29.7in /  1004.6hPa Calm   4mph /  6.4km/h 93% 0.03in /  0.8mm 0.00 W/m2
03:14 50 °F /  10.0 °C 48 °F /  8.9 °C 29.7in /  1004.6hPa Calm   3mph /  4.8km/h 93% 0.03in /  0.8mm 0.00 W/m2
03:19 50.2 °F /  10.1 °C 48.2 °F /  9.0 °C 29.7in /  1004.6hPa Calm   3mph /  4.8km/h 93% 0.04in /  1.0mm 0.00 W/m2
03:24 50.2 °F /  10.1 °C 48.2 °F /  9.0 °C 29.7in /  1004.6hPa Calm   1mph /  1.6km/h 93% 0.04in /  1.0mm 0.00 W/m2
03:29 50.2 °F /  10.1 °C 48.2 °F /  9.0 °C 29.7in /  1004.6hPa WSW 2mph /  3.2km/h 5mph /  8.0km/h 93% 0.03in /  0.8mm 0.00 W/m2
03:34 50.4 °F /  10.2 °C 48.4 °F /  9.1 °C 29.7in /  1004.3hPa WSW 4mph /  6.4km/h 6mph /  9.7km/h 93% 0.04in /  1.0mm 0.00 W/m2
03:39 50.4 °F /  10.2 °C 48.4 °F /  9.1 °C 29.7in /  1004.3hPa WSW 4mph /  6.4km/h 6mph /  9.7km/h 93% 0.04in /  1.0mm 0.00 W/m2
03:44 50.4 °F /  10.2 °C 48.4 °F /  9.1 °C 29.7in /  1004.3hPa WSW 4mph /  6.4km/h 5mph /  8.0km/h 93% 0.03in /  0.8mm 0.00 W/m2
03:49 50.4 °F /  10.2 °C 48.4 °F /  9.1 °C 29.7in /  1004.3hPa WSW 0.9mph /  1.4km/h 7mph /  11.3km/h 93% 0.03in /  0.8mm 0.00 W/m2
03:54 50.4 °F /  10.2 °C 48.7 °F /  9.3 °C 29.7in /  1004.3hPa WSW 2mph /  3.2km/h 4mph /  6.4km/h 94% 0.03in /  0.8mm 0.00 W/m2
03:59 50.4 °F /  10.2 °C 48.7 °F /  9.3 °C 29.7in /  1004.3hPa Calm   5mph /  8.0km/h 94% 0.04in /  1.0mm 0.00 W/m2
04:04 50.4 °F /  10.2 °C 48.7 °F /  9.3 °C 29.6in /  1003.9hPa SW 2.9mph /  4.7km/h 6mph /  9.7km/h 94% 0.04in /  1.0mm 0.00 W/m2
04:09 50.4 °F /  10.2 °C 48.7 °F /  9.3 °C 29.7in /  1004.3hPa SW 4mph /  6.4km/h 6mph /  9.7km/h 94% 0.04in /  1.0mm 0.00 W/m2
04:14 50.5 °F /  10.3 °C 48.9 °F /  9.4 °C 29.7in /  1004.3hPa SW 2.9mph /  4.7km/h 5mph /  8.0km/h 94% 0.04in /  1.0mm 0.00 W/m2
04:19 50.4 °F /  10.2 °C 48.7 °F /  9.3 °C 29.6in /  1003.9hPa SW 4.9mph /  7.9km/h 6mph /  9.7km/h 94% 0.04in /  1.0mm 0.00 W/m2
04:24 50.4 °F /  10.2 °C 48.7 °F /  9.3 °C 29.6in /  1003.9hPa SW 0.9mph /  1.4km/h 5mph /  8.0km/h 94% 0.04in /  1.0mm 0.00 W/m2
04:29 50.5 °F /  10.3 °C 48.9 °F /  9.4 °C 29.6in /  1003.9hPa SW 0.9mph /  1.4km/h 5mph /  8.0km/h 94% 0.04in /  1.0mm 0.00 W/m2
04:34 50.5 °F /  10.3 °C 48.9 °F /  9.4 °C 29.6in /  1003.9hPa SW 4mph /  6.4km/h 5mph /  8.0km/h 94% 0.04in /  1.0mm 0.00 W/m2
04:39 50.5 °F /  10.3 °C 48.9 °F /  9.4 °C 29.7in /  1004.3hPa Calm   4mph /  6.4km/h 94% 0.04in /  1.0mm 0.00 W/m2
04:44 50.5 °F /  10.3 °C 48.9 °F /  9.4 °C 29.6in /  1003.9hPa SW 2.9mph /  4.7km/h 3mph /  4.8km/h 94% 0.04in /  1.0mm 0.00 W/m2
04:49 50.5 °F /  10.3 °C 48.9 °F /  9.4 °C 29.6in /  1003.9hPa SW 2.9mph /  4.7km/h 5mph /  8.0km/h 94% 0.04in /  1.0mm 0.00 W/m2
04:54 50.5 °F /  10.3 °C 48.9 °F /  9.4 °C 29.6in /  1003.9hPa SW 0.9mph /  1.4km/h 5mph /  8.0km/h 94% 0.04in /  1.0mm 0.00 W/m2
04:59 50.5 °F /  10.3 °C 48.9 °F /  9.4 °C 29.7in /  1004.3hPa SW 2.9mph /  4.7km/h 8mph /  12.9km/h 94% 0.04in /  1.0mm 0.00 W/m2
05:04 50.5 °F /  10.3 °C 48.9 °F /  9.4 °C 29.6in /  1003.9hPa SW 2.9mph /  4.7km/h 6mph /  9.7km/h 94% 0.04in /  1.0mm 0.00 W/m2
05:09 50.5 °F /  10.3 °C 48.9 °F /  9.4 °C 29.6in /  1003.9hPa SW 4mph /  6.4km/h 5mph /  8.0km/h 94% 0.04in /  1.0mm 0.00 W/m2
05:14 50.5 °F /  10.3 °C 48.9 °F /  9.4 °C 29.6in /  1003.9hPa SW 6mph /  9.7km/h 6mph /  9.7km/h 94% 0.04in /  1.0mm 5.00 W/m2
05:19 50.5 °F /  10.3 °C 48.9 °F /  9.4 °C 29.6in /  1003.9hPa SW 7mph /  11.3km/h 7mph /  11.3km/h 94% 0.04in /  1.0mm 5.00 W/m2
05:24 50.5 °F /  10.3 °C 48.9 °F /  9.4 °C 29.6in /  1003.9hPa Calm   4mph /  6.4km/h 94% 0.04in /  1.0mm 9.00 W/m2
05:29 50.5 °F /  10.3 °C 48.9 °F /  9.4 °C 29.6in /  1003.9hPa SW 4mph /  6.4km/h 9mph /  14.5km/h 94% 0.04in /  1.0mm 11.00 W/m2
05:34 50.4 °F /  10.2 °C 48.7 °F /  9.3 °C 29.6in /  1003.9hPa SW 2.9mph /  4.7km/h 8mph /  12.9km/h 94% 0.04in /  1.0mm 14.00 W/m2
05:39 50.4 °F /  10.2 °C 48.7 °F /  9.3 °C 29.6in /  1003.9hPa SW 2mph /  3.2km/h 9mph /  14.5km/h 94% 0.04in /  1.0mm 18.00 W/m2
05:44 50.4 °F /  10.2 °C 48.7 °F /  9.3 °C 29.6in /  1003.9hPa WSW 6mph /  9.7km/h 8mph /  12.9km/h 94% 0.04in /  1.0mm 23.00 W/m2
05:49 50.4 °F /  10.2 °C 48.7 °F /  9.3 °C 29.6in /  1003.9hPa WSW 4.9mph /  7.9km/h 6mph /  9.7km/h 94% 0.04in /  1.0mm 28.00 W/m2
05:54 50.5 °F /  10.3 °C 48.9 °F /  9.4 °C 29.6in /  1003.9hPa WSW 4mph /  6.4km/h 6mph /  9.7km/h 94% 0.04in /  1.0mm 30.00 W/m2
05:59 50.5 °F /  10.3 °C 48.9 °F /  9.4 °C 29.6in /  1003.9hPa WSW 2mph /  3.2km/h 5mph /  8.0km/h 94% 0.03in /  0.8mm 30.00 W/m2
06:04 50.5 °F /  10.3 °C 48.9 °F /  9.4 °C 29.6in /  1003.9hPa WSW 0.9mph /  1.4km/h 5mph /  8.0km/h 94% 0.03in /  0.8mm 30.00 W/m2
06:09 50.5 °F /  10.3 °C 48.9 °F /  9.4 °C 29.6in /  1003.9hPa WSW 2.9mph /  4.7km/h 6mph /  9.7km/h 94% 0.02in /  0.5mm 35.00 W/m2
06:14 50.5 °F /  10.3 °C 48.9 °F /  9.4 °C 29.6in /  1003.9hPa Calm   3mph /  4.8km/h 94% 0.04in /  1.0mm 44.00 W/m2
06:19 50.5 °F /  10.3 °C 48.9 °F /  9.4 °C 29.6in /  1003.9hPa WSW 2.9mph /  4.7km/h 6mph /  9.7km/h 94% 0.04in /  1.0mm 40.00 W/m2
06:24 50.5 °F /  10.3 °C 48.9 °F /  9.4 °C 29.6in /  1003.6hPa WSW 2.9mph /  4.7km/h 7mph /  11.3km/h 94% 0.04in /  1.0mm 39.00 W/m2
06:29 50.5 °F /  10.3 °C 48.9 °F /  9.4 °C 29.6in /  1003.6hPa SW 9mph /  14.5km/h 9mph /  14.5km/h 94% 0.03in /  0.8mm 40.00 W/m2
06:34 50.5 °F /  10.3 °C 48.9 °F /  9.4 °C 29.6in /  1003.6hPa SW 2mph /  3.2km/h 5mph /  8.0km/h 94% 0.04in /  1.0mm 49.00 W/m2
06:39 50.7 °F /  10.4 °C 49.1 °F /  9.5 °C 29.6in /  1003.6hPa SW 6.9mph /  11.1km/h 7mph /  11.3km/h 94% 0.03in /  0.8mm 30.00 W/m2
06:44 50.5 °F /  10.3 °C 48.9 °F /  9.4 °C 29.6in /  1003.6hPa SW 4mph /  6.4km/h 7mph /  11.3km/h 94% 0.03in /  0.8mm 28.00 W/m2
06:49 50.5 °F /  10.3 °C 48.9 °F /  9.4 °C 29.6in /  1003.6hPa SW 4mph /  6.4km/h 4mph /  6.4km/h 94% 0.04in /  1.0mm 28.00 W/m2
06:54 50.5 °F /  10.3 °C 48.9 °F /  9.4 °C 29.6in /  1003.6hPa SW 0.9mph /  1.4km/h 5mph /  8.0km/h 94% 0.04in /  1.0mm 39.00 W/m2
06:59 50.5 °F /  10.3 °C 48.9 °F /  9.4 °C 29.6in /  1003.6hPa Calm   6mph /  9.7km/h 94% 0.04in /  1.0mm 51.00 W/m2
07:04 50.5 °F /  10.3 °C 48.9 °F /  9.4 °C 29.6in /  1003.6hPa WSW 2.9mph /  4.7km/h 11mph /  17.7km/h 94% 0.04in /  1.0mm 42.00 W/m2
07:09 50.5 °F /  10.3 °C 48.9 °F /  9.4 °C 29.6in /  1003.6hPa SW 2mph /  3.2km/h 5mph /  8.0km/h 94% 0.04in /  1.0mm 44.00 W/m2
07:14 50.7 °F /  10.4 °C 49.1 °F /  9.5 °C 29.6in /  1003.3hPa SSW 2mph /  3.2km/h 12mph /  19.3km/h 94% 0.03in /  0.8mm 51.00 W/m2
07:19 50.7 °F /  10.4 °C 49.1 °F /  9.5 °C 29.6in /  1003.3hPa WSW 4.9mph /  7.9km/h 9mph /  14.5km/h 94% 0.03in /  0.8mm 72.00 W/m2
07:24 50.7 °F /  10.4 °C 48.7 °F /  9.3 °C 29.6in /  1003.3hPa SW 8.1mph /  13.0km/h 11mph /  17.7km/h 93% 0.03in /  0.8mm 79.00 W/m2
07:29 50.7 °F /  10.4 °C 48.7 °F /  9.3 °C 29.6in /  1003.3hPa SSW 4mph /  6.4km/h 7mph /  11.3km/h 93% 0.02in /  0.5mm 84.00 W/m2
07:34 50.9 °F /  10.5 °C 48.9 °F /  9.4 °C 29.6in /  1003.3hPa SSW 6mph /  9.7km/h 8mph /  12.9km/h 93% 0.02in /  0.5mm 83.00 W/m2
07:39 50.9 °F /  10.5 °C 48.9 °F /  9.4 °C 29.6in /  1003.3hPa SW 4.9mph /  7.9km/h 7mph /  11.3km/h 93% 0.02in /  0.5mm 83.00 W/m2
07:44 50.9 °F /  10.5 °C 48.9 °F /  9.4 °C 29.6in /  1003.3hPa SW 2mph /  3.2km/h 9mph /  14.5km/h 93% 0.02in /  0.5mm 62.00 W/m2
07:49 50.9 °F /  10.5 °C 48.9 °F /  9.4 °C 29.6in /  1003.3hPa SW 4.9mph /  7.9km/h 8mph /  12.9km/h 93% 0.01in /  0.3mm 63.00 W/m2
07:54 50.9 °F /  10.5 °C 48.9 °F /  9.4 °C 29.6in /  1003.3hPa SW 6mph /  9.7km/h 7mph /  11.3km/h 93% 0.01in /  0.3mm 84.00 W/m2
07:59 51.3 °F /  10.7 °C 49.3 °F /  9.6 °C 29.6in /  1003.3hPa SW 4.9mph /  7.9km/h 6mph /  9.7km/h 93% 0in /  0.0mm 86.00 W/m2
08:04 51.3 °F /  10.7 °C 49.3 °F /  9.6 °C 29.6in /  1003.3hPa SW 6mph /  9.7km/h 6mph /  9.7km/h 93% 0in /  0.0mm 70.00 W/m2
08:09 51.1 °F /  10.6 °C 49.1 °F /  9.5 °C 29.6in /  1003.3hPa WSW 0.9mph /  1.4km/h 11mph /  17.7km/h 93% 0in /  0.0mm 77.00 W/m2
08:14 51.3 °F /  10.7 °C 49.3 °F /  9.6 °C 29.6in /  1003.3hPa SW 6mph /  9.7km/h 9mph /  14.5km/h 93% 0in /  0.0mm 111.00 W/m2
08:19 51.3 °F /  10.7 °C 49.3 °F /  9.6 °C 29.6in /  1003.3hPa WSW 2.9mph /  4.7km/h 13mph /  20.9km/h 93% 0in /  0.0mm 97.00 W/m2
08:24 51.3 °F /  10.7 °C 49.3 °F /  9.6 °C 29.6in /  1003.3hPa WSW 4mph /  6.4km/h 8mph /  12.9km/h 93% 0in /  0.0mm 77.00 W/m2
08:29 51.3 °F /  10.7 °C 49.3 °F /  9.6 °C 29.6in /  1003.3hPa SW 2.9mph /  4.7km/h 5mph /  8.0km/h 93% 0in /  0.0mm 62.00 W/m2
08:34 51.3 °F /  10.7 °C 49.3 °F /  9.6 °C 29.6in /  1003.3hPa WSW 13mph /  20.9km/h 13mph /  20.9km/h 93% 0in /  0.0mm 69.00 W/m2
08:39 51.3 °F /  10.7 °C 49.3 °F /  9.6 °C 29.6in /  1003.3hPa WSW 4mph /  6.4km/h 7mph /  11.3km/h 93% 0in /  0.0mm 62.00 W/m2
08:44 51.4 °F /  10.8 °C 49.5 °F /  9.7 °C 29.6in /  1003.3hPa WSW 2.9mph /  4.7km/h 7mph /  11.3km/h 93% 0in /  0.0mm 67.00 W/m2
08:49 51.4 °F /  10.8 °C 49.5 °F /  9.7 °C 29.6in /  1003.3hPa SW 6.9mph /  11.1km/h 12mph /  19.3km/h 93% 0in /  0.0mm 67.00 W/m2
08:54 51.4 °F /  10.8 °C 49.5 °F /  9.7 °C 29.6in /  1003.3hPa SW 4.9mph /  7.9km/h 8mph /  12.9km/h 93% 0in /  0.0mm 62.00 W/m2
08:59 51.4 °F /  10.8 °C 49.5 °F /  9.7 °C 29.6in /  1003.3hPa SW 4.9mph /  7.9km/h 9mph /  14.5km/h 93% 0in /  0.0mm 76.00 W/m2
09:04 51.6 °F /  10.9 °C 49.6 °F /  9.8 °C 29.6in /  1003.3hPa SW 4.9mph /  7.9km/h 14mph /  22.5km/h 93% 0in /  0.0mm 84.00 W/m2
09:09 51.6 °F /  10.9 °C 49.6 °F /  9.8 °C 29.6in /  1003.3hPa SW 4.9mph /  7.9km/h 8mph /  12.9km/h 93% 0in /  0.0mm 111.00 W/m2
09:14 51.8 °F /  11.0 °C 49.8 °F /  9.9 °C 29.6in /  1003.3hPa SW 6.9mph /  11.1km/h 10mph /  16.1km/h 93% 0in /  0.0mm 134.00 W/m2
09:19 51.8 °F /  11.0 °C 49.6 °F /  9.8 °C 29.6in /  1003.3hPa WSW 8.1mph /  13.0km/h 11mph /  17.7km/h 92% 0in /  0.0mm 141.00 W/m2
09:24 52.2 °F /  11.2 °C 49.8 °F /  9.9 °C 29.6in /  1003.3hPa WSW 2mph /  3.2km/h 8mph /  12.9km/h 92% 0in /  0.0mm 162.00 W/m2
09:29 52.2 °F /  11.2 °C 49.8 °F /  9.9 °C 29.6in /  1003.3hPa SW 4.9mph /  7.9km/h 10mph /  16.1km/h 92% 0in /  0.0mm 148.00 W/m2
09:34 52.5 °F /  11.4 °C 50.2 °F /  10.1 °C 29.6in /  1003.3hPa WSW 2.9mph /  4.7km/h 5mph /  8.0km/h 92% 0in /  0.0mm 109.00 W/m2
09:39 52.5 °F /  11.4 °C 50.2 °F /  10.1 °C 29.6in /  1003.3hPa SW 6mph /  9.7km/h 6mph /  9.7km/h 92% 0in /  0.0mm 125.00 W/m2
09:44 52.5 °F /  11.4 °C 50.2 °F /  10.1 °C 29.6in /  1003.3hPa WSW 4mph /  6.4km/h 7mph /  11.3km/h 92% 0in /  0.0mm 100.00 W/m2
09:49 52.5 °F /  11.4 °C 50.2 °F /  10.1 °C 29.6in /  1003.3hPa SW 4.9mph /  7.9km/h 9mph /  14.5km/h 92% 0in /  0.0mm 141.00 W/m2
09:54 52.5 °F /  11.4 °C 50.2 °F /  10.1 °C 29.6in /  1003.3hPa WSW 8.1mph /  13.0km/h 14mph /  22.5km/h 92% 0in /  0.0mm 165.00 W/m2
09:59 52.7 °F /  11.5 °C 50.2 °F /  10.1 °C 29.6in /  1003.3hPa SW 4mph /  6.4km/h 8mph /  12.9km/h 91% 0in /  0.0mm 155.00 W/m2
10:04 53.1 °F /  11.7 °C 50.5 °F /  10.3 °C 29.6in /  1003.3hPa SW 2mph /  3.2km/h 9mph /  14.5km/h 91% 0.01in /  0.3mm 144.00 W/m2
10:09 53.1 °F /  11.7 °C 50.5 °F /  10.3 °C 29.6in /  1003.3hPa SW 2mph /  3.2km/h 5mph /  8.0km/h 91% 0.01in /  0.3mm 109.00 W/m2
10:14 53.1 °F /  11.7 °C 50.5 °F /  10.3 °C 29.6in /  1003.3hPa SW 4.9mph /  7.9km/h 9mph /  14.5km/h 91% 0.01in /  0.3mm 153.00 W/m2
10:19 53.1 °F /  11.7 °C 50.5 °F /  10.3 °C 29.6in /  1003.3hPa SSW 2mph /  3.2km/h 9mph /  14.5km/h 91% 0.01in /  0.3mm 156.00 W/m2
10:24 53.2 °F /  11.8 °C 50.7 °F /  10.4 °C 29.6in /  1003.3hPa SSW 2mph /  3.2km/h 6mph /  9.7km/h 91% 0.01in /  0.3mm 153.00 W/m2
10:29 53.4 °F /  11.9 °C 50.9 °F /  10.5 °C 29.6in /  1003.3hPa SSW 9mph /  14.5km/h 9mph /  14.5km/h 91% 0.01in /  0.3mm 181.00 W/m2
10:34 53.2 °F /  11.8 °C 50.4 °F /  10.2 °C 29.6in /  1003.3hPa SSW 2mph /  3.2km/h 11mph /  17.7km/h 90% 0.01in /  0.3mm 181.00 W/m2
10:39 53.4 °F /  11.9 °C 50.5 °F /  10.3 °C 29.6in /  1003.3hPa SW 2mph /  3.2km/h 9mph /  14.5km/h 90% 0.01in /  0.3mm 153.00 W/m2
10:44 53.4 °F /  11.9 °C 50.9 °F /  10.5 °C 29.6in /  1003.3hPa Calm   6mph /  9.7km/h 91% 0.01in /  0.3mm 174.00 W/m2
10:49 53.4 °F /  11.9 °C 50.9 °F /  10.5 °C 29.6in /  1003.3hPa WSW 6mph /  9.7km/h 8mph /  12.9km/h 91% 0.01in /  0.3mm 100.00 W/m2
10:54 53.4 °F /  11.9 °C 50.9 °F /  10.5 °C 29.6in /  1003.3hPa WSW 0.9mph /  1.4km/h 6mph /  9.7km/h 91% 0.01in /  0.3mm 65.00 W/m2
10:59 53.4 °F /  11.9 °C 50.9 °F /  10.5 °C 29.6in /  1003.3hPa SW 2.9mph /  4.7km/h 9mph /  14.5km/h 91% 0.02in /  0.5mm 72.00 W/m2
11:04 53.4 °F /  11.9 °C 50.9 °F /  10.5 °C 29.6in /  1002.9hPa Calm   7mph /  11.3km/h 91% 0.01in /  0.3mm 76.00 W/m2
11:09 53.4 °F /  11.9 °C 50.9 °F /  10.5 °C 29.6in /  1003.3hPa Calm   4mph /  6.4km/h 91% 0.02in /  0.5mm 97.00 W/m2
11:14 53.4 °F /  11.9 °C 50.9 °F /  10.5 °C 29.6in /  1003.3hPa WSW 2mph /  3.2km/h 4mph /  6.4km/h 91% 0.02in /  0.5mm 139.00 W/m2
11:19 53.4 °F /  11.9 °C 51.1 °F /  10.6 °C 29.6in /  1003.3hPa SW 9mph /  14.5km/h 9mph /  14.5km/h 92% 0.02in /  0.5mm 160.00 W/m2
11:24 53.2 °F /  11.8 °C 50.7 °F /  10.4 °C 29.6in /  1003.3hPa WSW 4mph /  6.4km/h 9mph /  14.5km/h 91% 0.02in /  0.5mm 130.00 W/m2
11:29 53.2 °F /  11.8 °C 50.9 °F /  10.5 °C 29.6in /  1003.3hPa SW 4.9mph /  7.9km/h 5mph /  8.0km/h 92% 0.02in /  0.5mm 127.00 W/m2
11:34 53.2 °F /  11.8 °C 50.9 °F /  10.5 °C 29.6in /  1003.3hPa SW 4.9mph /  7.9km/h 8mph /  12.9km/h 92% 0.02in /  0.5mm 174.00 W/m2
11:39 53.1 °F /  11.7 °C 50.7 °F /  10.4 °C 29.6in /  1003.3hPa WSW 8.1mph /  13.0km/h 11mph /  17.7km/h 92% 0.03in /  0.8mm 230.00 W/m2
11:44 53.1 °F /  11.7 °C 50.7 °F /  10.4 °C 29.6in /  1003.3hPa SW 6mph /  9.7km/h 10mph /  16.1km/h 92% 0.03in /  0.8mm 229.00 W/m2
11:49 53.4 °F /  11.9 °C 51.1 °F /  10.6 °C 29.6in /  1003.3hPa WSW 6mph /  9.7km/h 8mph /  12.9km/h 92% 0.03in /  0.8mm 197.00 W/m2
11:54 53.6 °F /  12.0 °C 51.6 °F /  10.9 °C 29.6in /  1003.3hPa Calm   5mph /  8.0km/h 93% 0.03in /  0.8mm 220.00 W/m2
11:59 54 °F /  12.2 °C 52 °F /  11.1 °C 29.6in /  1003.3hPa SW 4mph /  6.4km/h 4mph /  6.4km/h 93% 0.02in /  0.5mm 204.00 W/m2
12:04 54 °F /  12.2 °C 52 °F /  11.1 °C 29.6in /  1003.3hPa West 8.1mph /  13.0km/h 8mph /  12.9km/h 93% 0.02in /  0.5mm 232.00 W/m2
12:09 53.8 °F /  12.1 °C 51.4 °F /  10.8 °C 29.6in /  1003.3hPa SW 6.9mph /  11.1km/h 7mph /  11.3km/h 92% 0.02in /  0.5mm 302.00 W/m2
12:14 54.1 °F /  12.3 °C 51.8 °F /  11.0 °C 29.6in /  1003.3hPa WSW 6mph /  9.7km/h 6mph /  9.7km/h 92% 0.02in /  0.5mm 274.00 W/m2
12:19 54.3 °F /  12.4 °C 52 °F /  11.1 °C 29.6in /  1003.3hPa West 6mph /  9.7km/h 9mph /  14.5km/h 92% 0.02in /  0.5mm 278.00 W/m2
12:24 54.7 °F /  12.6 °C 52.3 °F /  11.3 °C 29.6in /  1003.3hPa SSW 4mph /  6.4km/h 7mph /  11.3km/h 92% 0.01in /  0.3mm 306.00 W/m2
12:29 55 °F /  12.8 °C 52.7 °F /  11.5 °C 29.6in /  1003.3hPa SW 4mph /  6.4km/h 8mph /  12.9km/h 92% 0.01in /  0.3mm 309.00 W/m2
12:34 54.7 °F /  12.6 °C 52.3 °F /  11.3 °C 29.6in /  1003.3hPa WSW 8.9mph /  14.3km/h 11mph /  17.7km/h 92% 0in /  0.0mm 301.00 W/m2
12:39 54.5 °F /  12.5 °C 52 °F /  11.1 °C 29.6in /  1003.3hPa South 4.9mph /  7.9km/h 7mph /  11.3km/h 91% 0in /  0.0mm 308.00 W/m2
12:44 55 °F /  12.8 °C 52.7 °F /  11.5 °C 29.6in /  1003.3hPa SSW 4.9mph /  7.9km/h 7mph /  11.3km/h 92% 0in /  0.0mm 345.00 W/m2
12:49 55 °F /  12.8 °C 52.5 °F /  11.4 °C 29.6in /  1003.3hPa SW 6mph /  9.7km/h 7mph /  11.3km/h 91% 0in /  0.0mm 327.00 W/m2
12:54 55.2 °F /  12.9 °C 52.9 °F /  11.6 °C 29.6in /  1003.3hPa SW 4mph /  6.4km/h 7mph /  11.3km/h 92% 0in /  0.0mm 274.00 W/m2
12:59 54.7 °F /  12.6 °C 52.2 °F /  11.2 °C 29.6in /  1003.3hPa SW 4mph /  6.4km/h 7mph /  11.3km/h 91% 0in /  0.0mm 167.00 W/m2
13:04 54.9 °F /  12.7 °C 52.3 °F /  11.3 °C 29.6in /  1003.3hPa SW 0.9mph /  1.4km/h 4mph /  6.4km/h 91% 0in /  0.0mm 202.00 W/m2
13:09 54.9 °F /  12.7 °C 52.5 °F /  11.4 °C 29.6in /  1003.3hPa WSW 4mph /  6.4km/h 7mph /  11.3km/h 92% 0.01in /  0.3mm 265.00 W/m2
13:14 54.9 °F /  12.7 °C 52.5 °F /  11.4 °C 29.6in /  1003.3hPa WSW 0.9mph /  1.4km/h 6mph /  9.7km/h 92% 0.01in /  0.3mm 267.00 W/m2
13:19 55 °F /  12.8 °C 52.7 °F /  11.5 °C 29.6in /  1002.9hPa West 2.9mph /  4.7km/h 5mph /  8.0km/h 92% 0.01in /  0.3mm 216.00 W/m2
13:24 55 °F /  12.8 °C 52.7 °F /  11.5 °C 29.6in /  1003.3hPa WSW 4mph /  6.4km/h 6mph /  9.7km/h 92% 0.01in /  0.3mm 155.00 W/m2
13:29 55 °F /  12.8 °C 52.7 °F /  11.5 °C 29.6in /  1003.3hPa West 8.1mph /  13.0km/h 9mph /  14.5km/h 92% 0.02in /  0.5mm 76.00 W/m2
13:34 53.6 °F /  12.0 °C 51.1 °F /  10.6 °C 29.6in /  1003.3hPa West 4.9mph /  7.9km/h 9mph /  14.5km/h 91% 0.02in /  0.5mm 79.00 W/m2
13:39 53.6 °F /  12.0 °C 51.1 °F /  10.6 °C 29.6in /  1003.3hPa West 0.9mph /  1.4km/h 4mph /  6.4km/h 91% 0.02in /  0.5mm 221.00 W/m2
13:44 53.8 °F /  12.1 °C 51.4 °F /  10.8 °C 29.6in /  1003.3hPa West 4mph /  6.4km/h 9mph /  14.5km/h 92% 0.02in /  0.5mm 288.00 W/m2
13:49 54.3 °F /  12.4 °C 52 °F /  11.1 °C 29.6in /  1003.3hPa West 0.9mph /  1.4km/h 3mph /  4.8km/h 92% 0.02in /  0.5mm 445.00 W/m2
13:54 54.9 °F /  12.7 °C 52.5 °F /  11.4 °C 29.6in /  1003.3hPa Calm   1mph /  1.6km/h 92% 0.02in /  0.5mm 362.00 W/m2
13:59 55 °F /  12.8 °C 52.7 °F /  11.5 °C 29.6in /  1003.3hPa Calm     92% 0.02in /  0.5mm 216.00 W/m2
14:04 55 °F /  12.8 °C 52.7 °F /  11.5 °C 29.6in /  1003.3hPa West 3mph /  4.8km/h 3mph /  4.8km/h 92% 0.02in /  0.5mm 134.00 W/m2
14:09 55.2 °F /  12.9 °C 52.9 °F /  11.6 °C 29.6in /  1003.3hPa West 2mph /  3.2km/h 3mph /  4.8km/h 92% 0.01in /  0.3mm 209.00 W/m2
14:14 55.4 °F /  13.0 °C 53.1 °F /  11.7 °C 29.6in /  1003.3hPa West 4.9mph /  7.9km/h 5mph /  8.0km/h 92% 0.01in /  0.3mm 183.00 W/m2
14:19 55.4 °F /  13.0 °C 53.1 °F /  11.7 °C 29.6in /  1003.3hPa West 9mph /  14.5km/h 9mph /  14.5km/h 92% 0.01in /  0.3mm 279.00 W/m2
14:24 55.9 °F /  13.3 °C 53.6 °F /  12.0 °C 29.6in /  1003.3hPa WSW 4mph /  6.4km/h 9mph /  14.5km/h 92% 0.01in /  0.3mm 436.00 W/m2
14:29 56.3 °F /  13.5 °C 53.8 °F /  12.1 °C 29.6in /  1003.3hPa WSW 4mph /  6.4km/h 8mph /  12.9km/h 91% 0in /  0.0mm 482.00 W/m2
14:34 56.8 °F /  13.8 °C 54 °F /  12.2 °C 29.6in /  1003.3hPa West 4mph /  6.4km/h 10mph /  16.1km/h 90% 0in /  0.0mm 359.00 W/m2
14:39 56.8 °F /  13.8 °C 53.2 °F /  11.8 °C 29.6in /  1003.3hPa West 2mph /  3.2km/h 8mph /  12.9km/h 88% 0in /  0.0mm 214.00 W/m2
14:44 56.8 °F /  13.8 °C 53.2 °F /  11.8 °C 29.6in /  1003.3hPa WSW 6.9mph /  11.1km/h 12mph /  19.3km/h 88% 0in /  0.0mm 202.00 W/m2
14:49 56.8 °F /  13.8 °C 53.1 °F /  11.7 °C 29.6in /  1003.3hPa WSW 6mph /  9.7km/h 10mph /  16.1km/h 87% 0in /  0.0mm 206.00 W/m2
14:54 56.7 °F /  13.7 °C 52.9 °F /  11.6 °C 29.6in /  1003.3hPa WSW 6mph /  9.7km/h 13mph /  20.9km/h 87% 0in /  0.0mm 162.00 W/m2
14:59 56.3 °F /  13.5 °C 52.2 °F /  11.2 °C 29.6in /  1003.3hPa WSW 4.9mph /  7.9km/h 11mph /  17.7km/h 86% 0in /  0.0mm 308.00 W/m2
15:04 56.3 °F /  13.5 °C 52.5 °F /  11.4 °C 29.6in /  1003.6hPa WSW 6mph /  9.7km/h 8mph /  12.9km/h 87% 0in /  0.0mm 304.00 W/m2
15:09 56.3 °F /  13.5 °C 52.5 °F /  11.4 °C 29.6in /  1003.6hPa SSW 4.9mph /  7.9km/h 11mph /  17.7km/h 87% 0in /  0.0mm 367.00 W/m2
15:14 56.3 °F /  13.5 °C 52.5 °F /  11.4 °C 29.6in /  1003.3hPa Calm   8mph /  12.9km/h 87% 0in /  0.0mm 302.00 W/m2
15:19 56.3 °F /  13.5 °C 52.9 °F /  11.6 °C 29.6in /  1003.6hPa SW 0.9mph /  1.4km/h 8mph /  12.9km/h 88% 0in /  0.0mm 185.00 W/m2
15:24 56.1 °F /  13.4 °C 52.7 °F /  11.5 °C 29.6in /  1003.6hPa WSW 2.9mph /  4.7km/h 8mph /  12.9km/h 88% 0in /  0.0mm 148.00 W/m2
15:29 55.8 °F /  13.2 °C 52.3 °F /  11.3 °C 29.6in /  1003.6hPa SW 4mph /  6.4km/h 11mph /  17.7km/h 88% 0in /  0.0mm 251.00 W/m2
15:34 55.9 °F /  13.3 °C 52.5 °F /  11.4 °C 29.6in /  1003.6hPa SW 8.1mph /  13.0km/h 9mph /  14.5km/h 88% 0in /  0.0mm 281.00 W/m2
15:39 55.9 °F /  13.3 °C 52.5 °F /  11.4 °C 29.6in /  1003.6hPa WSW 6.9mph /  11.1km/h 8mph /  12.9km/h 88% 0in /  0.0mm 281.00 W/m2
15:44 56.1 °F /  13.4 °C 52.7 °F /  11.5 °C 29.6in /  1003.6hPa WSW 4.9mph /  7.9km/h 8mph /  12.9km/h 88% 0in /  0.0mm 306.00 W/m2
15:49 56.1 °F /  13.4 °C 52.7 °F /  11.5 °C 29.6in /  1003.6hPa SW 2mph /  3.2km/h 10mph /  16.1km/h 88% 0in /  0.0mm 306.00 W/m2
15:54 56.3 °F /  13.5 °C 52.9 °F /  11.6 °C 29.6in /  1003.6hPa WSW 6mph /  9.7km/h 9mph /  14.5km/h 88% 0in /  0.0mm 320.00 W/m2
15:59 56.5 °F /  13.6 °C 52.7 °F /  11.5 °C 29.6in /  1003.3hPa SW 4mph /  6.4km/h 7mph /  11.3km/h 87% 0in /  0.0mm 183.00 W/m2
16:04 56.5 °F /  13.6 °C 52.7 °F /  11.5 °C 29.6in /  1003.6hPa SSW 6mph /  9.7km/h 10mph /  16.1km/h 87% 0in /  0.0mm 35.00 W/m2
16:09 56.3 °F /  13.5 °C 52.5 °F /  11.4 °C 29.6in /  1003.6hPa WSW 4.9mph /  7.9km/h 10mph /  16.1km/h 87% 0in /  0.0mm 98.00 W/m2
16:14 55.8 °F /  13.2 °C 52 °F /  11.1 °C 29.6in /  1003.6hPa West 6mph /  9.7km/h 13mph /  20.9km/h 87% 0in /  0.0mm 234.00 W/m2
16:19 55.8 °F /  13.2 °C 52 °F /  11.1 °C 29.6in /  1003.6hPa SW 8.9mph /  14.3km/h 11mph /  17.7km/h 87% 0in /  0.0mm 221.00 W/m2
16:24 55.8 °F /  13.2 °C 52 °F /  11.1 °C 29.6in /  1003.6hPa West 8.1mph /  13.0km/h 10mph /  16.1km/h 87% 0in /  0.0mm 165.00 W/m2
16:29 55.8 °F /  13.2 °C 52 °F /  11.1 °C 29.6in /  1003.9hPa WSW 12mph /  19.3km/h 12mph /  19.3km/h 87% 0in /  0.0mm 86.00 W/m2
16:34 55.4 °F /  13.0 °C 51.6 °F /  10.9 °C 29.6in /  1003.9hPa West 15mph /  24.1km/h 21mph /  33.8km/h 87% 0in /  0.0mm 137.00 W/m2
16:39 54.5 °F /  12.5 °C 50.7 °F /  10.4 °C 29.6in /  1003.9hPa West 8.9mph /  14.3km/h 12mph /  19.3km/h 87% 0in /  0.0mm 118.00 W/m2
16:44 54.1 °F /  12.3 °C 50.7 °F /  10.4 °C 29.6in /  1003.9hPa WNW 4.9mph /  7.9km/h 10mph /  16.1km/h 88% 0in /  0.0mm 137.00 W/m2
16:49 53.4 °F /  11.9 °C 50.2 °F /  10.1 °C 29.6in /  1003.9hPa West 6.9mph /  11.1km/h 16mph /  25.7km/h 89% 0.01in /  0.3mm 139.00 W/m2
16:54 53.4 °F /  11.9 °C 50.5 °F /  10.3 °C 29.7in /  1004.3hPa WNW 6mph /  9.7km/h 12mph /  19.3km/h 90% 0.01in /  0.3mm 146.00 W/m2
16:59 53.4 °F /  11.9 °C 50.9 °F /  10.5 °C 29.7in /  1004.3hPa West 4mph /  6.4km/h 8mph /  12.9km/h 91% 0.01in /  0.3mm 139.00 W/m2
17:04 53.6 °F /  12.0 °C 51.1 °F /  10.6 °C 29.7in /  1004.3hPa WNW 4.9mph /  7.9km/h 11mph /  17.7km/h 91% 0.01in /  0.3mm 165.00 W/m2
17:09 53.6 °F /  12.0 °C 51.1 °F /  10.6 °C 29.7in /  1004.3hPa WNW 8.1mph /  13.0km/h 10mph /  16.1km/h 91% 0.01in /  0.3mm 176.00 W/m2
17:14 53.6 °F /  12.0 °C 51.3 °F /  10.7 °C 29.7in /  1004.3hPa West 4.9mph /  7.9km/h 10mph /  16.1km/h 92% 0.01in /  0.3mm 163.00 W/m2
17:19 54 °F /  12.2 °C 51.6 °F /  10.9 °C 29.7in /  1004.3hPa West 4mph /  6.4km/h 7mph /  11.3km/h 92% 0.01in /  0.3mm 113.00 W/m2
17:24 54.1 °F /  12.3 °C 51.8 °F /  11.0 °C 29.7in /  1004.3hPa West 0.9mph /  1.4km/h 9mph /  14.5km/h 92% 0.01in /  0.3mm 171.00 W/m2
17:29 54.3 °F /  12.4 °C 52 °F /  11.1 °C 29.7in /  1004.3hPa West 6mph /  9.7km/h 10mph /  16.1km/h 92% 0.01in /  0.3mm 158.00 W/m2
17:34 54.3 °F /  12.4 °C 52 °F /  11.1 °C 29.7in /  1004.3hPa NW 2mph /  3.2km/h 10mph /  16.1km/h 92% 0.01in /  0.3mm 167.00 W/m2
17:39 54.5 °F /  12.5 °C 52.2 °F /  11.2 °C 29.7in /  1004.3hPa NW 4.9mph /  7.9km/h 11mph /  17.7km/h 92% 0.01in /  0.3mm 141.00 W/m2
17:44 54.7 °F /  12.6 °C 52.3 °F /  11.3 °C 29.7in /  1004.3hPa WNW 10.1mph /  16.3km/h 10mph /  16.1km/h 92% 0.01in /  0.3mm 188.00 W/m2
17:49 54.7 °F /  12.6 °C 52.3 °F /  11.3 °C 29.7in /  1004.3hPa West 8.1mph /  13.0km/h 10mph /  16.1km/h 92% 0in /  0.0mm 162.00 W/m2
17:54 54.9 °F /  12.7 °C 52.3 °F /  11.3 °C 29.7in /  1004.3hPa West 4mph /  6.4km/h 11mph /  17.7km/h 91% 0in /  0.0mm 149.00 W/m2
17:59 54.7 °F /  12.6 °C 52.2 °F /  11.2 °C 29.7in /  1004.3hPa West 6.9mph /  11.1km/h 10mph /  16.1km/h 91% 0in /  0.0mm 165.00 W/m2
18:04 54.9 °F /  12.7 °C 52 °F /  11.1 °C 29.7in /  1004.3hPa West 4.9mph /  7.9km/h 9mph /  14.5km/h 90% 0in /  0.0mm 181.00 W/m2
18:08 55 °F /  12.8 °C 52.2 °F /  11.2 °C 29.7in /  1004.6hPa West 4mph /  6.4km/h 13mph /  20.9km/h 90% 0in /  0.0mm 185.00 W/m2
18:12 55 °F /  12.8 °C 51.8 °F /  11.0 °C 29.7in /  1004.6hPa WNW 8.9mph /  14.3km/h 12mph /  19.3km/h 89% 0in /  0.0mm 181.00 W/m2
18:15 55 °F /  12.8 °C 51.8 °F /  11.0 °C 29.7in /  1004.6hPa WSW 6.9mph /  11.1km/h 10mph /  16.1km/h 89% 0in /  0.0mm 153.00 W/m2
18:18 55 °F /  12.8 °C 51.8 °F /  11.0 °C 29.7in /  1004.6hPa West 6.9mph /  11.1km/h 13mph /  20.9km/h 89% 0in /  0.0mm 121.00 W/m2
18:23 55 °F /  12.8 °C 51.8 °F /  11.0 °C 29.7in /  1004.6hPa WNW 6mph /  9.7km/h 9mph /  14.5km/h 89% 0in /  0.0mm 105.00 W/m2
18:28 55 °F /  12.8 °C 51.8 °F /  11.0 °C 29.7in /  1004.6hPa NW 11mph /  17.7km/h 11mph /  17.7km/h 89% 0in /  0.0mm 121.00 W/m2
18:33 54.9 °F /  12.7 °C 51.6 °F /  10.9 °C 29.7in /  1004.6hPa West 6mph /  9.7km/h 10mph /  16.1km/h 89% 0in /  0.0mm 163.00 W/m2
18:42 55 °F /  12.8 °C 51.6 °F /  10.9 °C 29.7in /  1004.6hPa West 4.9mph /  7.9km/h 11mph /  17.7km/h 88% 0in /  0.0mm 153.00 W/m2
18:49 55.2 °F /  12.9 °C 51.8 °F /  11.0 °C 29.7in /  1005.0hPa West 12.1mph /  19.5km/h 12mph /  19.3km/h 88% 0in /  0.0mm 113.00 W/m2
18:54 55.2 °F /  12.9 °C 51.8 °F /  11.0 °C 29.7in /  1005.0hPa WSW 13mph /  20.9km/h 13mph /  20.9km/h 88% 0in /  0.0mm 102.00 W/m2
18:59 55 °F /  12.8 °C 51.3 °F /  10.7 °C 29.7in /  1005.0hPa West 6mph /  9.7km/h 9mph /  14.5km/h 87% 0in /  0.0mm 88.00 W/m2
19:04 55.2 °F /  12.9 °C 51.4 °F /  10.8 °C 29.7in /  1005.0hPa West 2mph /  3.2km/h 8mph /  12.9km/h 87% 0in /  0.0mm 102.00 W/m2
19:09 55.4 °F /  13.0 °C 51.6 °F /  10.9 °C 29.7in /  1005.0hPa WSW 4mph /  6.4km/h 7mph /  11.3km/h 87% 0in /  0.0mm 120.00 W/m2
19:14 55.4 °F /  13.0 °C 51.6 °F /  10.9 °C 29.7in /  1005.3hPa West 6mph /  9.7km/h 6mph /  9.7km/h 87% 0in /  0.0mm 160.00 W/m2
19:19 55.8 °F /  13.2 °C 52 °F /  11.1 °C 29.7in /  1005.3hPa West 2.9mph /  4.7km/h 6mph /  9.7km/h 87% 0in /  0.0mm 127.00 W/m2
19:24 55.9 °F /  13.3 °C 51.8 °F /  11.0 °C 29.7in /  1005.3hPa WSW 6mph /  9.7km/h 9mph /  14.5km/h 86% 0in /  0.0mm 107.00 W/m2
19:29 55.8 °F /  13.2 °C 51.6 °F /  10.9 °C 29.7in /  1005.3hPa WNW 4.9mph /  7.9km/h 10mph /  16.1km/h 86% 0in /  0.0mm 72.00 W/m2
19:34 55.8 °F /  13.2 °C 51.6 °F /  10.9 °C 29.7in /  1005.6hPa WSW 4.9mph /  7.9km/h 8mph /  12.9km/h 86% 0in /  0.0mm 40.00 W/m2
19:39 55.4 °F /  13.0 °C 51.3 °F /  10.7 °C 29.7in /  1005.6hPa West 4.9mph /  7.9km/h 6mph /  9.7km/h 86% 0in /  0.0mm 26.00 W/m2
19:44 55 °F /  12.8 °C 50.9 °F /  10.5 °C 29.7in /  1005.6hPa West 6mph /  9.7km/h 13mph /  20.9km/h 86% 0in /  0.0mm 25.00 W/m2
19:49 54.9 °F /  12.7 °C 50.7 °F /  10.4 °C 29.7in /  1005.6hPa West 2mph /  3.2km/h 5mph /  8.0km/h 86% 0in /  0.0mm 23.00 W/m2
19:54 54.5 °F /  12.5 °C 50.4 °F /  10.2 °C 29.7in /  1005.6hPa West 8.9mph /  14.3km/h 13mph /  20.9km/h 86% 0in /  0.0mm 25.00 W/m2
19:54 54.5 °F /  12.5 °C 50.4 °F /  10.2 °C 29.7in /  1005.6hPa West 6mph /  9.7km/h 13mph /  20.9km/h 86% 0in /  0.0mm 25.00 W/m2
19:56 54.5 °F /  12.5 °C 50.4 °F /  10.2 °C 29.7in /  1005.6hPa WNW 4.9mph /  7.9km/h 13mph /  20.9km/h 86% 0in /  0.0mm 26.00 W/m2
19:58 54.5 °F /  12.5 °C 50.4 °F /  10.2 °C 29.7in /  1006.0hPa West 14mph /  22.5km/h 14mph /  22.5km/h 86% 0in /  0.0mm 28.00 W/m2
19:59 54.3 °F /  12.4 °C 50.2 °F /  10.1 °C 29.7in /  1005.6hPa West 4.9mph /  7.9km/h 14mph /  22.5km/h 86% 0in /  0.0mm 28.00 W/m2
19:59 54.5 °F /  12.5 °C 50.4 °F /  10.2 °C 29.7in /  1006.0hPa WNW 6mph /  9.7km/h 14mph /  22.5km/h 86% 0in /  0.0mm 30.00 W/m2
20:02 54.3 °F /  12.4 °C 50.2 °F /  10.1 °C 29.7in /  1006.0hPa WNW 6.9mph /  11.1km/h 7mph /  11.3km/h 86% 0in /  0.0mm 32.00 W/m2
20:10 54.1 °F /  12.3 °C 50 °F /  10.0 °C 29.7in /  1006.0hPa WNW 8.9mph /  14.3km/h 9mph /  14.5km/h 86% 0in /  0.0mm 33.00 W/m2
20:11 54.1 °F /  12.3 °C 50 °F /  10.0 °C 29.7in /  1006.0hPa West 11mph /  17.7km/h 11mph /  17.7km/h 86% 0in /  0.0mm 33.00 W/m2
20:15 54 °F /  12.2 °C 49.8 °F /  9.9 °C 29.7in /  1006.0hPa West 2mph /  3.2km/h 7mph /  11.3km/h 86% 0in /  0.0mm 33.00 W/m2
20:21 53.8 °F /  12.1 °C 49.6 °F /  9.8 °C 29.7in /  1006.0hPa WNW 2.9mph /  4.7km/h 8mph /  12.9km/h 86% 0in /  0.0mm 30.00 W/m2
20:27 53.6 °F /  12.0 °C 49.5 °F /  9.7 °C 29.7in /  1006.3hPa WSW 2.9mph /  4.7km/h 7mph /  11.3km/h 86% 0in /  0.0mm 21.00 W/m2
20:33 53.4 °F /  11.9 °C 49.3 °F /  9.6 °C 29.7in /  1006.3hPa West 9mph /  14.5km/h 9mph /  14.5km/h 86% 0in /  0.0mm 18.00 W/m2
20:40 53.4 °F /  11.9 °C 49.3 °F /  9.6 °C 29.7in /  1006.3hPa West 6.9mph /  11.1km/h 9mph /  14.5km/h 86% 0in /  0.0mm 16.00 W/m2
20:45 53.4 °F /  11.9 °C 49.6 °F /  9.8 °C 29.7in /  1006.3hPa WNW 8.1mph /  13.0km/h 15mph /  24.1km/h 87% 0in /  0.0mm 16.00 W/m2
20:52 53.2 °F /  11.8 °C 49.1 °F /  9.5 °C 29.7in /  1006.3hPa WNW 2mph /  3.2km/h 9mph /  14.5km/h 86% 0in /  0.0mm 14.00 W/m2
20:54 53.2 °F /  11.8 °C 49.5 °F /  9.7 °C 29.7in /  1006.7hPa NW 6mph /  9.7km/h 10mph /  16.1km/h 87% 0in /  0.0mm 12.00 W/m2
21:01 53.1 °F /  11.7 °C 49.3 °F /  9.6 °C 29.7in /  1006.7hPa West 2.9mph /  4.7km/h 3mph /  4.8km/h 87% 0in /  0.0mm 11.00 W/m2
21:07 52.9 °F /  11.6 °C 49.1 °F /  9.5 °C 29.7in /  1006.7hPa WNW 2.9mph /  4.7km/h 8mph /  12.9km/h 87% 0in /  0.0mm 7.00 W/m2
21:16 52.7 °F /  11.5 °C 48.9 °F /  9.4 °C 29.7in /  1006.7hPa West 2.9mph /  4.7km/h 7mph /  11.3km/h 87% 0in /  0.0mm 0.00 W/m2
21:24 52.7 °F /  11.5 °C 48.9 °F /  9.4 °C 29.7in /  1007.0hPa West 4mph /  6.4km/h 7mph /  11.3km/h 87% 0in /  0.0mm 0.00 W/m2
21:26 52.7 °F /  11.5 °C 48.9 °F /  9.4 °C 29.7in /  1007.0hPa WNW 4.9mph /  7.9km/h 7mph /  11.3km/h 87% 0in /  0.0mm 0.00 W/m2
21:26 52.7 °F /  11.5 °C 48.9 °F /  9.4 °C 29.7in /  1007.0hPa West 4mph /  6.4km/h 7mph /  11.3km/h 87% 0in /  0.0mm 0.00 W/m2
21:27 52.5 °F /  11.4 °C 48.7 °F /  9.3 °C 29.7in /  1007.0hPa West 4.9mph /  7.9km/h 7mph /  11.3km/h 87% 0in /  0.0mm 0.00 W/m2
21:28 52.5 °F /  11.4 °C 48.7 °F /  9.3 °C 29.7in /  1007.0hPa West 4mph /  6.4km/h 6mph /  9.7km/h 87% 0in /  0.0mm 0.00 W/m2
21:30 52.5 °F /  11.4 °C 48.7 °F /  9.3 °C 29.7in /  1007.0hPa West 0.9mph /  1.4km/h 4mph /  6.4km/h 87% 0in /  0.0mm 0.00 W/m2
21:31 52.5 °F /  11.4 °C 48.7 °F /  9.3 °C 29.7in /  1007.0hPa Calm   2mph /  3.2km/h 87% 0in /  0.0mm 0.00 W/m2
21:33 52.5 °F /  11.4 °C 48.7 °F /  9.3 °C 29.7in /  1007.0hPa West 2mph /  3.2km/h 4mph /  6.4km/h 87% 0in /  0.0mm 0.00 W/m2
21:39 52.5 °F /  11.4 °C 48.7 °F /  9.3 °C 29.7in /  1007.0hPa West 2mph /  3.2km/h 4mph /  6.4km/h 87% 0in /  0.0mm 0.00 W/m2
21:40 52.5 °F /  11.4 °C 48.7 °F /  9.3 °C 29.7in /  1007.0hPa West 2.9mph /  4.7km/h 4mph /  6.4km/h 87% 0in /  0.0mm 0.00 W/m2
21:41 52.3 °F /  11.3 °C 48.6 °F /  9.2 °C 29.7in /  1007.0hPa West 2mph /  3.2km/h 3mph /  4.8km/h 87% 0in /  0.0mm 0.00 W/m2
21:43 52.3 °F /  11.3 °C 48.6 °F /  9.2 °C 29.7in /  1007.0hPa West 2mph /  3.2km/h 3mph /  4.8km/h 87% 0in /  0.0mm 0.00 W/m2
21:46 52.3 °F /  11.3 °C 48.6 °F /  9.2 °C 29.7in /  1007.0hPa West 0.9mph /  1.4km/h 5mph /  8.0km/h 87% 0in /  0.0mm 0.00 W/m2
21:46 52.3 °F /  11.3 °C 48.6 °F /  9.2 °C 29.7in /  1007.0hPa West 2.9mph /  4.7km/h 6mph /  9.7km/h 87% 0in /  0.0mm 0.00 W/m2